createdAt,value
2022-09-28T00:01:24.730Z,9.90
2022-09-28T00:03:54.524Z,9.90
2022-09-28T00:06:24.426Z,9.80
2022-09-28T00:08:54.276Z,9.80
2022-09-28T00:11:23.783Z,9.80
2022-09-28T00:13:52.993Z,9.90
2022-09-28T00:16:22.351Z,9.80
2022-09-28T00:18:51.402Z,9.80
2022-09-28T00:21:21.692Z,9.80
2022-09-28T00:24:08.193Z,9.80
2022-09-28T00:26:39.041Z,9.90
2022-09-28T00:29:07.470Z,9.90
2022-09-28T00:31:35.784Z,9.80
2022-09-28T00:34:05.976Z,9.90
2022-09-28T00:36:35.008Z,9.90
2022-09-28T00:39:05.490Z,9.90
2022-09-28T00:41:33.789Z,9.90
2022-09-28T00:44:41.804Z,9.90
2022-09-28T00:47:37.456Z,9.90
2022-09-28T00:50:08.484Z,9.90
2022-09-28T00:52:37.943Z,9.80
2022-09-28T00:55:08.498Z,9.80
2022-09-28T00:57:40.068Z,9.80
2022-09-28T01:00:09.755Z,9.80
2022-09-28T01:02:39.902Z,9.70
2022-09-28T01:05:08.716Z,9.70
2022-09-28T01:07:37.380Z,9.70
2022-09-28T01:10:06.756Z,9.70
2022-09-28T01:12:35.028Z,9.60
2022-09-28T01:15:03.321Z,9.60
2022-09-28T01:17:35.316Z,9.60
2022-09-28T01:20:32.748Z,9.60
2022-09-28T01:23:27.803Z,9.50
2022-09-28T01:25:56.777Z,9.50
2022-09-28T01:28:27.728Z,9.50
2022-09-28T01:31:07.692Z,9.50
2022-09-28T01:33:39.345Z,9.50
2022-09-28T01:36:09.278Z,9.50
2022-09-28T01:38:39.171Z,9.50
2022-09-28T01:41:23.904Z,9.50
2022-09-28T01:43:55.223Z,9.50
2022-09-28T01:46:24.007Z,9.50
2022-09-28T01:48:53.349Z,9.50
2022-09-28T01:51:24.477Z,9.50
2022-09-28T01:53:55.068Z,9.50
2022-09-28T01:56:26.097Z,9.50
2022-09-28T01:59:02.488Z,9.50
2022-09-28T02:01:31.657Z,9.50
2022-09-28T02:04:02.925Z,9.50
2022-09-28T02:06:33.000Z,9.50
2022-09-28T02:09:06.705Z,9.50
2022-09-28T02:11:37.931Z,9.50
2022-09-28T02:14:06.900Z,9.60
2022-09-28T02:16:37.092Z,9.60
2022-09-28T02:19:08.608Z,9.60
2022-09-28T02:21:43.023Z,9.70
2022-09-28T02:24:19.336Z,9.70
2022-09-28T02:26:52.645Z,9.70
2022-09-28T02:29:23.939Z,9.70
2022-09-28T02:31:52.360Z,9.70
2022-09-28T02:34:21.100Z,9.60
2022-09-28T02:36:49.638Z,9.70
2022-09-28T02:39:19.240Z,9.60
2022-09-28T02:41:57.357Z,9.60
2022-09-28T02:44:37.481Z,9.60
2022-09-28T02:47:08.953Z,9.60
2022-09-28T02:49:42.196Z,9.60
2022-09-28T02:52:23.635Z,9.60
2022-09-28T02:55:20.040Z,9.60
2022-09-28T02:58:02.492Z,9.60
2022-09-28T03:00:32.362Z,9.60
2022-09-28T03:03:02.693Z,9.70
2022-09-28T03:05:33.413Z,9.70
2022-09-28T03:08:02.509Z,9.70
2022-09-28T03:10:38.543Z,9.80
2022-09-28T03:13:09.696Z,9.80
2022-09-28T03:15:38.027Z,9.80
2022-09-28T03:18:06.383Z,9.90
2022-09-28T03:20:35.817Z,9.90
2022-09-28T03:23:23.934Z,9.90
2022-09-28T03:25:52.502Z,10.00
2022-09-28T03:28:22.763Z,10.00
2022-09-28T03:30:54.083Z,10.10
2022-09-28T03:33:22.499Z,10.10
2022-09-28T03:35:50.878Z,10.10
2022-09-28T03:38:21.843Z,10.10
2022-09-28T03:41:05.285Z,10.10
2022-09-28T03:43:34.885Z,10.10
2022-09-28T03:46:03.492Z,10.10
2022-09-28T03:48:33.106Z,10.10
2022-09-28T03:51:03.469Z,10.10
2022-09-28T03:53:31.872Z,10.10
2022-09-28T03:56:03.798Z,10.10
2022-09-28T03:58:32.092Z,10.10
2022-09-28T04:01:05.337Z,10.10
2022-09-28T04:03:33.697Z,10.10
2022-09-28T04:06:02.079Z,10.00
2022-09-28T04:08:30.233Z,10.00
2022-09-28T04:11:13.493Z,10.00
2022-09-28T04:13:41.649Z,10.00
2022-09-28T04:16:11.538Z,9.90
2022-09-28T04:18:39.979Z,9.90
2022-09-28T04:21:09.435Z,9.90
2022-09-28T04:23:41.006Z,9.90
2022-09-28T04:26:17.598Z,9.90
2022-09-28T04:29:06.535Z,9.90
2022-09-28T04:31:40.659Z,10.00
2022-09-28T04:34:14.797Z,10.00
2022-09-28T04:36:43.939Z,10.00
2022-09-28T04:39:13.091Z,10.00
2022-09-28T04:41:42.151Z,10.00
2022-09-28T04:44:19.338Z,10.00
2022-09-28T04:46:50.041Z,10.00
2022-09-28T04:49:25.224Z,10.00
2022-09-28T04:51:57.612Z,10.00
2022-09-28T04:54:31.590Z,9.90
2022-09-28T04:57:00.012Z,9.90
2022-09-28T04:59:28.361Z,9.80
2022-09-28T05:02:03.387Z,9.80
2022-09-28T05:04:37.528Z,9.80
2022-09-28T05:07:05.999Z,9.80
2022-09-28T05:09:38.447Z,9.70
2022-09-28T05:12:07.081Z,9.60
2022-09-28T05:14:35.525Z,9.60
2022-09-28T05:17:06.701Z,9.50
2022-09-28T05:19:35.645Z,9.50
2022-09-28T05:22:07.323Z,9.50
2022-09-28T05:24:38.402Z,9.40
2022-09-28T05:27:06.875Z,9.40
2022-09-28T05:29:35.302Z,9.40
2022-09-28T05:32:09.022Z,9.40
2022-09-28T05:34:42.767Z,9.40
2022-09-28T05:37:11.102Z,9.40
2022-09-28T05:39:39.518Z,9.50
2022-09-28T05:42:13.039Z,9.50
2022-09-28T05:44:43.294Z,9.50
2022-09-28T05:47:14.543Z,9.60
2022-09-28T05:49:42.961Z,9.60
2022-09-28T05:52:14.267Z,9.60
2022-09-28T05:54:45.549Z,9.70
2022-09-28T05:57:22.542Z,9.70
2022-09-28T05:59:50.959Z,9.70
2022-09-28T06:02:26.807Z,9.70
2022-09-28T06:04:55.819Z,9.70
2022-09-28T06:07:28.807Z,9.70
2022-09-28T06:09:57.168Z,9.70
2022-09-28T06:12:29.936Z,9.70
2022-09-28T06:14:59.458Z,9.70
2022-09-28T06:17:29.630Z,9.70
2022-09-28T06:20:04.073Z,9.70
2022-09-28T06:22:32.225Z,9.70
2022-09-28T06:25:05.521Z,9.70
2022-09-28T06:27:37.223Z,9.70
2022-09-28T06:30:06.555Z,9.70
2022-09-28T06:32:36.224Z,9.70
2022-09-28T06:35:05.042Z,9.80
2022-09-28T06:37:45.490Z,9.80
2022-09-28T06:40:14.034Z,9.80
2022-09-28T06:42:43.716Z,9.90
2022-09-28T06:45:14.228Z,9.90
2022-09-28T06:47:47.420Z,10.00
2022-09-28T06:50:15.808Z,10.00
2022-09-28T06:52:49.689Z,10.10
2022-09-28T06:55:17.914Z,10.10
2022-09-28T06:57:49.232Z,10.30
2022-09-28T07:00:20.419Z,10.40
2022-09-28T07:02:52.648Z,10.50
2022-09-28T07:05:27.386Z,10.60
2022-09-28T07:07:56.879Z,10.70
2022-09-28T07:10:29.582Z,10.80
2022-09-28T07:12:58.473Z,10.90
2022-09-28T07:15:27.041Z,11.00
2022-09-28T07:18:02.464Z,11.10
2022-09-28T07:20:48.105Z,11.30
2022-09-28T07:23:24.527Z,11.40
2022-09-28T07:25:52.753Z,11.50
2022-09-28T07:28:21.245Z,11.60
2022-09-28T07:31:00.244Z,11.80
2022-09-28T07:33:32.953Z,11.90
2022-09-28T07:36:06.539Z,12.00
2022-09-28T07:38:35.280Z,12.10
2022-09-28T07:41:12.710Z,12.20
2022-09-28T07:43:41.035Z,12.30
2022-09-28T07:46:14.946Z,12.40
2022-09-28T07:48:45.957Z,12.50
2022-09-28T07:51:20.069Z,12.70
2022-09-28T07:53:48.854Z,12.80
2022-09-28T07:56:25.576Z,13.10
2022-09-28T07:58:53.955Z,13.40
2022-09-28T08:01:31.192Z,13.80
2022-09-28T08:04:02.712Z,14.30
2022-09-28T08:06:32.919Z,14.50
2022-09-28T08:09:05.644Z,14.60
2022-09-28T08:11:40.223Z,14.60
2022-09-28T08:14:08.484Z,14.70
2022-09-28T08:16:40.070Z,14.70
2022-09-28T08:19:10.141Z,14.80
2022-09-28T08:21:46.188Z,14.80
2022-09-28T08:24:17.775Z,14.80
2022-09-28T08:26:47.238Z,14.90
2022-09-28T08:29:16.176Z,14.90
2022-09-28T08:31:44.430Z,15.00
2022-09-28T08:34:17.904Z,15.10
2022-09-28T08:36:46.407Z,15.20
2022-09-28T08:39:20.432Z,15.20
2022-09-28T08:41:51.178Z,15.30
2022-09-28T08:44:27.917Z,15.40
2022-09-28T08:46:57.844Z,15.50
2022-09-28T08:49:34.391Z,15.50
2022-09-28T08:52:07.374Z,15.60
2022-09-28T08:54:45.616Z,15.70
2022-09-28T08:57:21.650Z,15.80
2022-09-28T08:59:51.800Z,15.90
2022-09-28T09:02:29.239Z,16.00
2022-09-28T09:04:58.966Z,16.00
2022-09-28T09:08:10.957Z,16.00
2022-09-28T09:10:52.228Z,16.10
2022-09-28T09:13:44.451Z,16.20
2022-09-28T09:16:40.901Z,16.30
2022-09-28T09:19:22.352Z,16.50
2022-09-28T09:21:56.124Z,16.70
2022-09-28T09:25:04.712Z,16.90
2022-09-28T09:27:43.030Z,17.30
2022-09-28T09:30:16.349Z,17.50
2022-09-28T09:33:08.704Z,17.60
2022-09-28T09:36:04.558Z,17.70
2022-09-28T09:38:48.552Z,17.30
2022-09-28T09:41:22.545Z,16.90
2022-09-28T09:44:30.929Z,16.60
2022-09-28T09:47:02.330Z,16.40
2022-09-28T09:49:34.498Z,16.50
2022-09-28T09:52:05.213Z,16.70
2022-09-28T09:54:36.967Z,16.80
2022-09-28T09:57:09.022Z,16.90
2022-09-28T09:59:45.398Z,17.10
2022-09-28T10:02:25.340Z,17.40
2022-09-28T10:04:55.156Z,17.70
2022-09-28T10:07:26.222Z,18.00
2022-09-28T10:10:03.621Z,17.80
2022-09-28T10:12:34.743Z,17.70
2022-09-28T10:15:03.356Z,17.80
2022-09-28T10:17:32.969Z,17.80
2022-09-28T10:20:02.769Z,18.00
2022-09-28T10:22:32.020Z,18.20
2022-09-28T10:25:02.081Z,18.30
2022-09-28T10:27:32.830Z,18.50
2022-09-28T10:30:02.060Z,18.60
2022-09-28T10:32:38.982Z,18.80
2022-09-28T10:35:16.087Z,19.00
2022-09-28T10:37:54.286Z,19.10
2022-09-28T10:40:43.759Z,19.10
2022-09-28T10:43:19.890Z,19.20
2022-09-28T10:45:59.702Z,19.20
2022-09-28T10:48:28.160Z,19.30
2022-09-28T10:51:00.586Z,19.30
2022-09-28T10:53:28.893Z,19.00
2022-09-28T10:56:01.569Z,18.70
2022-09-28T10:58:45.429Z,18.40
2022-09-28T11:01:15.347Z,18.10
2022-09-28T11:04:10.846Z,17.70
2022-09-28T11:07:17.140Z,17.50
2022-09-28T11:09:48.751Z,17.20
2022-09-28T11:12:22.618Z,17.30
2022-09-28T11:15:03.745Z,17.60
2022-09-28T11:17:44.198Z,17.80
2022-09-28T11:21:00.926Z,17.90
2022-09-28T11:23:40.054Z,18.00
2022-09-28T11:26:23.659Z,18.00
2022-09-28T11:29:00.243Z,18.10
2022-09-28T11:31:31.050Z,18.20
2022-09-28T11:34:10.256Z,18.20
2022-09-28T11:37:01.668Z,18.40
2022-09-28T11:40:07.276Z,18.70
2022-09-28T11:42:51.674Z,18.90
2022-09-28T11:45:36.938Z,19.10
2022-09-28T11:48:09.680Z,19.20
2022-09-28T11:50:50.668Z,19.20
2022-09-28T11:53:22.378Z,19.30
2022-09-28T11:55:53.567Z,19.50
2022-09-28T11:58:25.654Z,19.60
2022-09-28T12:01:09.460Z,19.70
2022-09-28T12:03:41.033Z,19.80
2022-09-28T12:06:11.163Z,19.90
2022-09-28T12:08:44.480Z,19.90
2022-09-28T12:11:23.405Z,19.90
2022-09-28T12:13:51.867Z,19.90
2022-09-28T12:17:03.590Z,20.10
2022-09-28T12:19:21.194Z,20.20
2022-09-28T12:21:54.024Z,20.10
2022-09-28T12:24:24.805Z,20.10
2022-09-28T12:26:55.487Z,20.10
2022-09-28T12:29:25.950Z,20.30
2022-09-28T13:29:15.196Z,21.50
2022-09-28T13:31:46.516Z,21.00
2022-09-28T13:34:18.373Z,21.10
2022-09-28T13:36:48.260Z,21.10
2022-09-28T13:39:41.058Z,21.20
2022-09-28T13:42:09.479Z,21.10
2022-09-28T13:45:04.472Z,21.10
2022-09-28T13:47:50.204Z,21.20
2022-09-28T13:50:29.812Z,21.20
2022-09-28T13:53:09.305Z,20.70
2022-09-28T13:55:39.940Z,20.20
2022-09-28T13:58:19.259Z,19.80
2022-09-28T14:00:52.579Z,19.50
2022-09-28T14:03:30.571Z,19.10
2022-09-28T14:06:08.154Z,18.80
2022-09-28T14:08:41.743Z,18.50
2022-09-28T14:11:52.580Z,18.00
2022-09-28T14:14:51.602Z,17.40
2022-09-28T14:18:09.108Z,16.60
2022-09-28T14:20:38.994Z,16.10
2022-09-28T14:23:43.334Z,15.80
2022-09-28T14:27:05.355Z,15.50
2022-09-28T14:29:34.805Z,15.20
2022-09-28T14:32:20.027Z,14.90
2022-09-28T14:34:59.521Z,14.60
2022-09-28T14:37:48.995Z,14.30
2022-09-28T14:40:49.361Z,14.10
2022-09-28T14:43:31.680Z,13.90
2022-09-28T14:46:40.857Z,13.70
2022-09-28T14:49:57.879Z,13.70
2022-09-28T14:52:47.167Z,13.70
2022-09-28T14:55:35.536Z,13.80
2022-09-28T14:58:04.514Z,13.90
2022-09-28T15:00:33.330Z,14.00
2022-09-28T15:03:12.124Z,14.00
2022-09-28T15:05:49.803Z,14.20
2022-09-28T15:08:29.260Z,14.40
2022-09-28T15:10:58.759Z,14.60
2022-09-28T15:13:43.063Z,14.80
2022-09-28T15:16:25.092Z,14.90
2022-09-28T15:19:18.091Z,14.90
2022-09-28T15:21:50.397Z,14.90
2022-09-28T15:24:36.719Z,15.00
2022-09-28T15:27:26.201Z,15.10
2022-09-28T15:29:58.735Z,15.30
2022-09-28T15:32:34.651Z,15.40
2022-09-28T15:35:15.621Z,15.50
2022-09-28T15:37:43.868Z,15.60
2022-09-28T15:40:24.463Z,15.80
2022-09-28T15:43:16.243Z,15.90
2022-09-28T15:45:59.393Z,16.00
2022-09-28T15:48:31.148Z,16.00
2022-09-28T15:51:15.768Z,16.00
2022-09-28T15:53:45.034Z,15.90
2022-09-28T15:56:17.252Z,15.70
2022-09-28T15:58:45.558Z,15.60
2022-09-28T16:01:37.395Z,15.50
2022-09-28T16:04:50.461Z,15.40
2022-09-28T16:07:27.601Z,15.30
2022-09-28T16:10:12.327Z,15.20
2022-09-28T16:12:49.168Z,15.10
2022-09-28T16:15:24.343Z,15.00
2022-09-28T16:18:03.929Z,14.90
2022-09-28T16:21:05.561Z,14.80
2022-09-28T16:23:39.321Z,14.70
2022-09-28T16:26:12.094Z,14.60
2022-09-28T16:28:54.345Z,14.60
2022-09-28T16:31:34.572Z,14.50
2022-09-28T16:34:25.537Z,14.40
2022-09-28T16:36:56.585Z,14.30
2022-09-28T16:39:31.674Z,14.20
2022-09-28T16:42:03.222Z,14.20
2022-09-28T16:44:36.403Z,14.00
2022-09-28T16:47:07.517Z,14.00
2022-09-28T16:49:39.296Z,13.90
2022-09-28T16:52:35.636Z,13.90
2022-09-28T16:58:06.442Z,13.70
2022-09-28T17:00:39.037Z,13.70
2022-09-28T17:03:15.903Z,13.60
2022-09-28T17:05:48.152Z,13.50
2022-09-28T17:08:30.346Z,13.60
2022-09-28T17:13:47.886Z,13.40
2022-09-28T17:16:28.249Z,13.40
2022-09-28T17:19:06.853Z,13.40
2022-09-28T17:21:41.775Z,13.30
2022-09-28T17:24:10.140Z,13.30
2022-09-28T17:26:45.171Z,13.30
2022-09-28T17:29:18.917Z,13.30
2022-09-28T17:31:48.799Z,13.30
2022-09-28T17:34:22.106Z,13.30
2022-09-28T17:36:53.346Z,13.20
2022-09-28T17:39:21.749Z,13.20
2022-09-28T17:41:49.879Z,13.20
2022-09-28T17:44:24.407Z,13.10
2022-09-28T17:46:55.335Z,13.10
2022-09-28T17:49:23.482Z,13.10
2022-09-28T17:51:52.945Z,13.10
2022-09-28T17:54:22.675Z,13.00
2022-09-28T17:57:01.118Z,13.00
2022-09-28T17:59:29.263Z,13.00
2022-09-28T18:02:02.857Z,12.90
2022-09-28T18:04:50.782Z,12.90
2022-09-28T18:07:26.141Z,12.80
2022-09-28T18:09:56.797Z,12.80
2022-09-28T18:12:25.137Z,12.90
2022-09-28T18:14:53.863Z,12.90
2022-09-28T18:17:40.870Z,12.90
2022-09-28T18:20:12.509Z,13.00
2022-09-28T18:22:40.720Z,13.00
2022-09-28T18:25:09.562Z,13.00
2022-09-28T18:27:43.452Z,13.10
2022-09-28T18:30:12.255Z,13.00
2022-09-28T18:32:45.470Z,13.10
2022-09-28T18:35:19.370Z,13.00
2022-09-28T18:37:53.023Z,13.00
2022-09-28T18:40:21.845Z,13.10
2022-09-28T18:42:52.201Z,13.00
2022-09-28T18:45:23.066Z,13.10
2022-09-28T18:47:57.836Z,13.00
2022-09-28T18:50:26.105Z,13.00
2022-09-28T18:53:11.378Z,12.90
2022-09-28T18:55:42.058Z,12.80
2022-09-28T18:58:13.305Z,12.70
2022-09-28T19:00:44.358Z,12.60
2022-09-28T19:03:21.791Z,12.50
2022-09-28T19:05:50.122Z,12.30
2022-09-28T19:08:27.543Z,12.20
2022-09-28T19:11:06.132Z,12.10
2022-09-28T19:13:34.334Z,12.10
2022-09-28T19:16:09.817Z,12.00
2022-09-28T19:18:39.514Z,11.90
2022-09-28T19:21:08.744Z,11.80
2022-09-28T19:23:37.166Z,11.80
2022-09-28T19:26:13.133Z,11.80
2022-09-28T19:28:41.848Z,11.80
2022-09-28T19:31:10.253Z,11.80
2022-09-28T19:33:53.775Z,11.80
2022-09-28T19:36:23.805Z,11.80
2022-09-28T19:38:54.525Z,11.70
2022-09-28T19:41:43.683Z,11.80
2022-09-28T19:44:15.871Z,11.70
2022-09-28T19:46:46.227Z,11.70
2022-09-28T19:49:19.508Z,11.70
2022-09-28T19:52:11.399Z,11.60
2022-09-28T19:54:38.242Z,11.60
2022-09-28T19:57:09.007Z,11.50
2022-09-28T19:59:37.403Z,11.40
2022-09-28T20:02:06.227Z,11.50
2022-09-28T20:04:36.013Z,11.50
2022-09-28T20:07:10.808Z,11.50
2022-09-28T20:09:43.776Z,11.50
2022-09-28T20:12:20.235Z,11.40
2022-09-28T20:14:48.262Z,11.30
2022-09-28T20:17:19.370Z,11.30
2022-09-28T20:19:51.823Z,11.30
2022-09-28T20:22:20.233Z,11.20
2022-09-28T20:24:48.419Z,11.10
2022-09-28T20:27:16.541Z,11.10
2022-09-28T20:29:48.774Z,11.10
2022-09-28T20:32:17.465Z,11.10
2022-09-28T20:34:45.629Z,11.00
2022-09-28T20:37:18.681Z,11.00
2022-09-28T20:39:46.995Z,10.90
2022-09-28T20:42:19.581Z,10.80
2022-09-28T20:44:47.725Z,10.80
2022-09-28T20:47:23.278Z,10.80
2022-09-28T20:49:52.475Z,10.80
2022-09-28T20:52:27.524Z,10.70
2022-09-28T20:54:56.000Z,10.70
2022-09-28T20:57:24.654Z,10.70
2022-09-28T20:59:54.869Z,10.60
2022-09-28T21:02:25.677Z,10.60
2022-09-28T21:04:54.170Z,10.60
2022-09-28T21:07:22.414Z,10.60
2022-09-28T21:09:52.165Z,10.60
2022-09-28T21:12:20.575Z,10.60
2022-09-28T21:14:48.781Z,10.60
2022-09-28T21:17:17.346Z,10.60
2022-09-28T21:19:45.598Z,10.60
2022-09-28T21:22:14.172Z,10.50
2022-09-28T21:24:49.392Z,10.50
2022-09-28T21:27:22.003Z,10.50
2022-09-28T21:29:50.127Z,10.40
2022-09-28T21:32:25.718Z,10.40
2022-09-28T21:34:56.479Z,10.40
2022-09-28T21:37:25.197Z,10.40
2022-09-28T21:39:54.604Z,10.30
2022-09-28T21:42:24.311Z,10.40
2022-09-28T21:44:59.366Z,10.30
2022-09-28T21:47:32.952Z,10.30
2022-09-28T21:50:10.206Z,10.30
2022-09-28T21:52:39.790Z,10.20
2022-09-28T21:55:10.702Z,10.20
2022-09-28T21:57:40.582Z,10.20
2022-09-28T22:00:15.311Z,10.10
2022-09-28T22:02:43.872Z,10.10
2022-09-28T22:05:14.402Z,10.10
2022-09-28T22:07:42.786Z,10.10
2022-09-28T22:10:14.182Z,10.10
2022-09-28T22:12:44.242Z,10.10
2022-09-28T22:15:12.631Z,10.00
2022-09-28T22:17:41.214Z,10.00
2022-09-28T22:20:10.307Z,10.00
2022-09-28T22:22:38.467Z,10.00
2022-09-28T22:25:07.847Z,10.00
2022-09-28T22:27:36.253Z,9.90
2022-09-28T22:30:14.067Z,9.90
2022-09-28T22:32:42.184Z,9.90
2022-09-28T22:35:11.277Z,9.80
2022-09-28T22:37:39.469Z,9.80
2022-09-28T22:40:15.684Z,9.80
2022-09-28T22:42:44.442Z,9.80
2022-09-28T22:45:14.257Z,9.80
2022-09-28T22:47:42.418Z,9.80
2022-09-28T22:50:14.230Z,9.70
2022-09-28T22:52:42.476Z,9.70
2022-09-28T22:55:12.859Z,9.70
2022-09-28T22:57:41.417Z,9.70
2022-09-28T23:00:10.523Z,9.60
2022-09-28T23:02:42.029Z,9.60
2022-09-28T23:05:10.395Z,9.60
2022-09-28T23:07:38.853Z,9.60
2022-09-28T23:10:07.882Z,9.50
2022-09-28T23:12:36.072Z,9.50
2022-09-28T23:15:04.377Z,9.50
2022-09-28T23:17:32.544Z,9.50
2022-09-28T23:20:02.457Z,9.50
2022-09-28T23:22:30.583Z,9.50
2022-09-28T23:25:02.981Z,9.50
2022-09-28T23:27:31.097Z,9.50
2022-09-28T23:30:02.525Z,9.50
2022-09-28T23:32:32.118Z,9.50
2022-09-28T23:35:01.837Z,9.50
2022-09-28T23:37:30.091Z,9.50
2022-09-28T23:39:58.255Z,9.40
2022-09-28T23:42:26.663Z,9.40
2022-09-28T23:44:59.966Z,9.40
2022-09-28T23:47:28.135Z,9.40
2022-09-28T23:49:56.317Z,9.40
2022-09-28T23:52:26.438Z,9.40
2022-09-28T23:54:54.846Z,9.40
2022-09-28T23:57:23.460Z,9.30
2022-09-28T23:59:51.668Z,9.30
